NCAR-RAP Real-Time Weather Data

Output produced by METARs form (10 April 2020  07:21 UTC)
found at http://weather.rap.ucar.edu/surface/
 
KBNA 100653Z 34015G28KT 10SM SCT250 08/M03 A2998 RMK AO2 PK WND 01031/0623 SLP150 T00831028
KBNA 100553Z 33008G20KT 10SM BKN250 12/M05 A2994 RMK AO2 SLP134 T01221050 10172 20117 402000117 53019
KBNA 100453Z 33008KT 10SM SCT250 12/M04 A2991 RMK AO2 SLP126 T01221039
KBNA 100353Z 31012G20KT 10SM BKN250 13/M01 A2990 RMK AO2 SLP121 T01331006
KBNA 100253Z 26003KT 10SM FEW250 14/M01 A2988 RMK AO2 SLP115 T01391006 53013
KBNA 100153Z 28006KT 10SM FEW250 14/M02 A2986 RMK AO2 SLP107 T01441017
KBNA 100053Z 30006KT 10SM FEW120 BKN250 16/M01 A2984 RMK AO2 SLP101 T01611011
KBNA 092353Z 29012G20KT 10SM BKN120 BKN250 17/M02 A2984 RMK AO2 SLP102 T01721022 10200 20172 53001
KBNA 092253Z 31013G25KT 10SM OVC120 18/M03 A2983 RMK AO2 SLP098 T01831033
KBNA 092153Z 28008KT 10SM SCT130 BKN250 20/00 A2983 RMK AO2 SLP096 T02000000
KBNA 092053Z 31010KT 10SM SCT250 20/00 A2984 RMK AO2 SLP098 T02000000 56026
KBNA 091953Z 30009G17KT 250V320 10SM BKN250 19/M02 A2986 RMK AO2 SLP106 T01891022
KBNA 091853Z 27010KT 10SM BKN250 18/M02 A2989 RMK AO2 SLP117 T01831017
KBNA 091753Z 35011G16KT 10SM BKN250 17/M01 A2991 RMK AO2 SLP125 T01721011 10178 20133 58015
KBNA 091653Z 34007G18KT 10SM BKN250 17/M02 A2994 RMK AO2 SLP133 T01721022
KBNA 091553Z 35013G21KT 10SM FEW200 SCT250 16/M02 A2995 RMK AO2 SLP138 T01611017
KBNA 091453Z 34008G17KT 280V010 10SM BKN250 15/04 A2996 RMK AO2 SLP139 T01500044 51024
KBNA 091353Z 34014KT 10SM FEW028 FEW200 SCT250 14/04 A2995 RMK AO2 SLP136 T01390039
KBNA 091253Z 33012KT 10SM FEW026 SCT100 SCT250 13/07 A2993 RMK AO2 PK WND 33027/1154 SLP132 T01330067
KBNA 091153Z 33015G25KT 10SM FEW024 SCT065 BKN250 14/08 A2988 RMK AO2 PK WND 33027/1130 PRESRR SLP116 60003 70027 T01390078 10183 20139 53049
KBNA 091053Z 33012G20KT 10SM FEW065 SCT110 16/11 A2980 RMK AO2 SLP087 T01560106
KBNA 090953Z 32007KT 10SM FEW050 BKN110 17/13 A2975 RMK AO2 SLP070 T01670128
KBNA 090853Z 31008KT 10SM FEW046 SCT110 OVC200 17/13 A2974 RMK AO2 SLP064 60003 T01720133 53014